sensor_id;sensor_type;location;lat;lon;timestamp;P1;durP1;ratioP1;P2;durP2;ratioP2
35530;SDS011;21637;53.352;-6.356;2023-04-08T00:00:00;9.38;;;4.95;;
35530;SDS011;21637;53.352;-6.356;2023-04-08T00:02:26;9.70;;;4.78;;
35530;SDS011;21637;53.352;-6.356;2023-04-08T00:04:52;11.00;;;5.38;;
35530;SDS011;21637;53.352;-6.356;2023-04-08T00:07:18;11.65;;;5.90;;
35530;SDS011;21637;53.352;-6.356;2023-04-08T00:09:44;8.60;;;4.90;;
35530;SDS011;21637;53.352;-6.356;2023-04-08T00:12:09;9.63;;;5.30;;
35530;SDS011;21637;53.352;-6.356;2023-04-08T00:14:35;9.18;;;4.78;;
35530;SDS011;21637;53.352;-6.356;2023-04-08T00:17:02;9.88;;;5.55;;
35530;SDS011;21637;53.352;-6.356;2023-04-08T00:19:28;9.23;;;5.78;;
35530;SDS011;21637;53.352;-6.356;2023-04-08T00:21:53;9.38;;;5.78;;
35530;SDS011;21637;53.352;-6.356;2023-04-08T00:24:19;8.80;;;5.30;;
35530;SDS011;21637;53.352;-6.356;2023-04-08T00:26:45;10.88;;;5.95;;
35530;SDS011;21637;53.352;-6.356;2023-04-08T00:29:10;8.48;;;5.75;;
35530;SDS011;21637;53.352;-6.356;2023-04-08T00:31:36;11.00;;;5.60;;
35530;SDS011;21637;53.352;-6.356;2023-04-08T00:34:02;12.27;;;5.80;;
35530;SDS011;21637;53.352;-6.356;2023-04-08T00:36:27;12.70;;;6.32;;
35530;SDS011;21637;53.352;-6.356;2023-04-08T00:38:53;9.05;;;6.03;;
35530;SDS011;21637;53.352;-6.356;2023-04-08T00:41:19;9.25;;;5.85;;
35530;SDS011;21637;53.352;-6.356;2023-04-08T00:43:45;8.80;;;5.72;;
35530;SDS011;21637;53.352;-6.356;2023-04-08T00:46:11;11.68;;;7.03;;
35530;SDS011;21637;53.352;-6.356;2023-04-08T00:48:36;12.20;;;6.38;;
35530;SDS011;21637;53.352;-6.356;2023-04-08T00:51:02;9.45;;;6.03;;
35530;SDS011;21637;53.352;-6.356;2023-04-08T00:53:29;11.20;;;6.85;;
35530;SDS011;21637;53.352;-6.356;2023-04-08T00:55:55;10.13;;;6.95;;
35530;SDS011;21637;53.352;-6.356;2023-04-08T00:58:22;10.45;;;6.20;;
35530;SDS011;21637;53.352;-6.356;2023-04-08T01:00:53;8.88;;;5.88;;
35530;SDS011;21637;53.352;-6.356;2023-04-08T01:03:43;15.57;;;7.00;;
35530;SDS011;21637;53.352;-6.356;2023-04-08T01:06:24;10.93;;;6.53;;
35530;SDS011;21637;53.352;-6.356;2023-04-08T01:08:56;12.27;;;6.82;;
35530;SDS011;21637;53.352;-6.356;2023-04-08T01:11:24;13.18;;;7.40;;
35530;SDS011;21637;53.352;-6.356;2023-04-08T01:13:53;10.00;;;6.10;;
35530;SDS011;21637;53.352;-6.356;2023-04-08T01:16:21;12.60;;;6.13;;
35530;SDS011;21637;53.352;-6.356;2023-04-08T01:18:49;11.60;;;6.35;;
35530;SDS011;21637;53.352;-6.356;2023-04-08T01:21:16;12.90;;;6.80;;
35530;SDS011;21637;53.352;-6.356;2023-04-08T01:23:56;13.80;;;7.40;;
35530;SDS011;21637;53.352;-6.356;2023-04-08T01:26:30;15.35;;;7.20;;
35530;SDS011;21637;53.352;-6.356;2023-04-08T01:28:57;10.20;;;6.57;;
35530;SDS011;21637;53.352;-6.356;2023-04-08T01:31:25;12.63;;;7.10;;
35530;SDS011;21637;53.352;-6.356;2023-04-08T01:33:52;11.05;;;6.38;;
35530;SDS011;21637;53.352;-6.356;2023-04-08T01:36:19;13.40;;;6.15;;
35530;SDS011;21637;53.352;-6.356;2023-04-08T01:38:47;12.80;;;6.47;;
35530;SDS011;21637;53.352;-6.356;2023-04-08T01:41:14;11.68;;;6.65;;
35530;SDS011;21637;53.352;-6.356;2023-04-08T01:43:42;14.70;;;7.93;;
35530;SDS011;21637;53.352;-6.356;2023-04-08T01:46:09;11.88;;;6.93;;
35530;SDS011;21637;53.352;-6.356;2023-04-08T01:48:37;13.23;;;7.38;;
35530;SDS011;21637;53.352;-6.356;2023-04-08T01:51:04;13.93;;;7.68;;
35530;SDS011;21637;53.352;-6.356;2023-04-08T01:53:31;11.57;;;7.72;;
35530;SDS011;21637;53.352;-6.356;2023-04-08T01:56:00;12.55;;;7.00;;
35530;SDS011;21637;53.352;-6.356;2023-04-08T01:58:40;10.32;;;7.65;;
35530;SDS011;21637;53.352;-6.356;2023-04-08T02:01:17;19.95;;;8.10;;
35530;SDS011;21637;53.352;-6.356;2023-04-08T02:03:45;11.77;;;7.75;;
35530;SDS011;21637;53.352;-6.356;2023-04-08T02:06:12;15.48;;;8.18;;
35530;SDS011;21637;53.352;-6.356;2023-04-08T02:08:38;15.75;;;7.40;;
35530;SDS011;21637;53.352;-6.356;2023-04-08T02:11:04;12.80;;;7.07;;
35530;SDS011;21637;53.352;-6.356;2023-04-08T02:13:30;12.82;;;6.90;;
35530;SDS011;21637;53.352;-6.356;2023-04-08T02:15:59;16.90;;;7.10;;
35530;SDS011;21637;53.352;-6.356;2023-04-08T02:18:30;13.35;;;6.68;;
35530;SDS011;21637;53.352;-6.356;2023-04-08T02:21:05;12.63;;;6.38;;
35530;SDS011;21637;53.352;-6.356;2023-04-08T02:23:37;11.52;;;6.75;;
35530;SDS011;21637;53.352;-6.356;2023-04-08T02:26:12;14.38;;;5.80;;
35530;SDS011;21637;53.352;-6.356;2023-04-08T02:28:38;12.20;;;5.50;;
35530;SDS011;21637;53.352;-6.356;2023-04-08T02:31:09;9.93;;;4.72;;
35530;SDS011;21637;53.352;-6.356;2023-04-08T02:33:39;9.18;;;4.85;;
35530;SDS011;21637;53.352;-6.356;2023-04-08T02:36:06;6.95;;;4.45;;
35530;SDS011;21637;53.352;-6.356;2023-04-08T02:38:33;12.98;;;5.20;;
35530;SDS011;21637;53.352;-6.356;2023-04-08T02:40:59;6.35;;;4.20;;
35530;SDS011;21637;53.352;-6.356;2023-04-08T02:43:25;10.70;;;4.80;;
35530;SDS011;21637;53.352;-6.356;2023-04-08T02:45:56;9.05;;;4.35;;
35530;SDS011;21637;53.352;-6.356;2023-04-08T02:48:24;7.50;;;4.35;;
35530;SDS011;21637;53.352;-6.356;2023-04-08T02:50:49;10.43;;;4.30;;
35530;SDS011;21637;53.352;-6.356;2023-04-08T02:53:15;9.30;;;4.15;;
35530;SDS011;21637;53.352;-6.356;2023-04-08T02:55:41;8.27;;;3.97;;
35530;SDS011;21637;53.352;-6.356;2023-04-08T02:58:06;10.07;;;4.60;;
35530;SDS011;21637;53.352;-6.356;2023-04-08T03:00:32;13.93;;;4.78;;
35530;SDS011;21637;53.352;-6.356;2023-04-08T03:02:58;10.60;;;4.00;;
35530;SDS011;21637;53.352;-6.356;2023-04-08T03:05:24;7.18;;;4.25;;
35530;SDS011;21637;53.352;-6.356;2023-04-08T03:07:50;11.65;;;4.28;;
35530;SDS011;21637;53.352;-6.356;2023-04-08T03:10:16;8.13;;;3.80;;
35530;SDS011;21637;53.352;-6.356;2023-04-08T03:12:42;9.85;;;3.80;;
35530;SDS011;21637;53.352;-6.356;2023-04-08T03:15:08;6.97;;;3.80;;
35530;SDS011;21637;53.352;-6.356;2023-04-08T03:17:33;6.43;;;3.70;;
35530;SDS011;21637;53.352;-6.356;2023-04-08T03:19:59;6.82;;;4.13;;
35530;SDS011;21637;53.352;-6.356;2023-04-08T03:22:28;7.30;;;3.42;;
35530;SDS011;21637;53.352;-6.356;2023-04-08T03:24:54;9.48;;;4.03;;
35530;SDS011;21637;53.352;-6.356;2023-04-08T03:27:21;12.25;;;3.85;;
35530;SDS011;21637;53.352;-6.356;2023-04-08T03:29:47;4.70;;;3.10;;
35530;SDS011;21637;53.352;-6.356;2023-04-08T03:32:12;7.20;;;4.30;;
35530;SDS011;21637;53.352;-6.356;2023-04-08T03:34:38;7.75;;;3.30;;
35530;SDS011;21637;53.352;-6.356;2023-04-08T03:37:04;10.95;;;3.75;;
35530;SDS011;21637;53.352;-6.356;2023-04-08T03:39:30;5.68;;;2.70;;
35530;SDS011;21637;53.352;-6.356;2023-04-08T03:41:55;6.35;;;2.55;;
35530;SDS011;21637;53.352;-6.356;2023-04-08T03:44:23;6.03;;;2.20;;
35530;SDS011;21637;53.352;-6.356;2023-04-08T03:46:49;6.68;;;2.70;;
35530;SDS011;21637;53.352;-6.356;2023-04-08T03:49:15;6.45;;;2.47;;
35530;SDS011;21637;53.352;-6.356;2023-04-08T03:51:40;5.75;;;2.00;;
35530;SDS011;21637;53.352;-6.356;2023-04-08T03:54:06;7.20;;;1.80;;
35530;SDS011;21637;53.352;-6.356;2023-04-08T03:56:32;7.15;;;2.00;;
35530;SDS011;21637;53.352;-6.356;2023-04-08T03:58:58;4.13;;;1.95;;
35530;SDS011;21637;53.352;-6.356;2023-04-08T04:01:24;8.45;;;2.00;;
35530;SDS011;21637;53.352;-6.356;2023-04-08T04:03:50;3.75;;;1.98;;
35530;SDS011;21637;53.352;-6.356;2023-04-08T04:06:15;4.97;;;1.63;;
35530;SDS011;21637;53.352;-6.356;2023-04-08T04:08:41;3.50;;;1.83;;
35530;SDS011;21637;53.352;-6.356;2023-04-08T04:11:07;6.15;;;1.88;;
35530;SDS011;21637;53.352;-6.356;2023-04-08T04:13:32;6.20;;;2.03;;
35530;SDS011;21637;53.352;-6.356;2023-04-08T04:15:58;5.93;;;1.98;;
35530;SDS011;21637;53.352;-6.356;2023-04-08T04:18:24;5.53;;;1.95;;
35530;SDS011;21637;53.352;-6.356;2023-04-08T04:20:49;6.68;;;2.25;;
35530;SDS011;21637;53.352;-6.356;2023-04-08T04:23:15;4.68;;;2.20;;
35530;SDS011;21637;53.352;-6.356;2023-04-08T04:25:41;6.20;;;1.95;;
35530;SDS011;21637;53.352;-6.356;2023-04-08T04:28:07;5.53;;;2.22;;
35530;SDS011;21637;53.352;-6.356;2023-04-08T04:30:37;7.80;;;2.38;;
35530;SDS011;21637;53.352;-6.356;2023-04-08T04:33:05;4.37;;;2.07;;
35530;SDS011;21637;53.352;-6.356;2023-04-08T04:35:32;5.68;;;1.92;;
35530;SDS011;21637;53.352;-6.356;2023-04-08T04:37:58;5.65;;;2.28;;
35530;SDS011;21637;53.352;-6.356;2023-04-08T04:40:23;7.72;;;2.17;;
35530;SDS011;21637;53.352;-6.356;2023-04-08T04:42:49;7.50;;;3.05;;
35530;SDS011;21637;53.352;-6.356;2023-04-08T04:45:15;5.88;;;2.60;;
35530;SDS011;21637;53.352;-6.356;2023-04-08T04:47:41;4.85;;;2.38;;
35530;SDS011;21637;53.352;-6.356;2023-04-08T04:50:06;5.07;;;2.50;;
35530;SDS011;21637;53.352;-6.356;2023-04-08T04:52:34;7.47;;;2.70;;
35530;SDS011;21637;53.352;-6.356;2023-04-08T04:55:00;8.98;;;2.72;;
35530;SDS011;21637;53.352;-6.356;2023-04-08T04:57:26;9.30;;;2.63;;
35530;SDS011;21637;53.352;-6.356;2023-04-08T04:59:52;6.20;;;2.67;;
35530;SDS011;21637;53.352;-6.356;2023-04-08T05:02:17;4.00;;;2.60;;
35530;SDS011;21637;53.352;-6.356;2023-04-08T05:04:43;6.43;;;2.90;;
35530;SDS011;21637;53.352;-6.356;2023-04-08T05:07:09;4.40;;;2.67;;
35530;SDS011;21637;53.352;-6.356;2023-04-08T05:09:34;6.10;;;2.83;;
35530;SDS011;21637;53.352;-6.356;2023-04-08T05:12:00;7.18;;;2.60;;
35530;SDS011;21637;53.352;-6.356;2023-04-08T05:14:27;5.82;;;2.63;;
35530;SDS011;21637;53.352;-6.356;2023-04-08T05:16:54;3.95;;;2.67;;
35530;SDS011;21637;53.352;-6.356;2023-04-08T05:19:20;8.32;;;3.10;;
35530;SDS011;21637;53.352;-6.356;2023-04-08T05:21:46;5.18;;;3.00;;
35530;SDS011;21637;53.352;-6.356;2023-04-08T05:24:11;6.60;;;2.83;;
35530;SDS011;21637;53.352;-6.356;2023-04-08T05:26:37;7.50;;;3.50;;
35530;SDS011;21637;53.352;-6.356;2023-04-08T05:29:03;5.72;;;3.63;;
35530;SDS011;21637;53.352;-6.356;2023-04-08T05:31:29;8.02;;;3.47;;
35530;SDS011;21637;53.352;-6.356;2023-04-08T05:33:54;8.57;;;3.22;;
35530;SDS011;21637;53.352;-6.356;2023-04-08T05:36:20;10.13;;;4.43;;
35530;SDS011;21637;53.352;-6.356;2023-04-08T05:38:46;7.80;;;3.92;;
35530;SDS011;21637;53.352;-6.356;2023-04-08T05:41:11;8.02;;;4.57;;
35530;SDS011;21637;53.352;-6.356;2023-04-08T05:43:37;7.15;;;4.22;;
35530;SDS011;21637;53.352;-6.356;2023-04-08T05:46:06;9.93;;;4.55;;
35530;SDS011;21637;53.352;-6.356;2023-04-08T05:48:33;10.93;;;5.03;;
35530;SDS011;21637;53.352;-6.356;2023-04-08T05:50:59;6.80;;;4.43;;
35530;SDS011;21637;53.352;-6.356;2023-04-08T05:53:25;8.32;;;4.55;;
35530;SDS011;21637;53.352;-6.356;2023-04-08T05:55:51;11.75;;;4.93;;
35530;SDS011;21637;53.352;-6.356;2023-04-08T05:58:16;8.38;;;4.57;;
35530;SDS011;21637;53.352;-6.356;2023-04-08T06:00:42;10.07;;;4.95;;
35530;SDS011;21637;53.352;-6.356;2023-04-08T06:03:08;11.93;;;4.88;;
35530;SDS011;21637;53.352;-6.356;2023-04-08T06:05:33;10.20;;;4.47;;
35530;SDS011;21637;53.352;-6.356;2023-04-08T06:07:59;11.15;;;5.00;;
35530;SDS011;21637;53.352;-6.356;2023-04-08T06:10:25;8.95;;;4.60;;
35530;SDS011;21637;53.352;-6.356;2023-04-08T06:12:51;12.05;;;4.68;;
35530;SDS011;21637;53.352;-6.356;2023-04-08T06:15:17;12.23;;;4.93;;
35530;SDS011;21637;53.352;-6.356;2023-04-08T06:17:42;10.25;;;4.43;;
35530;SDS011;21637;53.352;-6.356;2023-04-08T06:20:08;12.43;;;4.65;;
35530;SDS011;21637;53.352;-6.356;2023-04-08T06:22:34;5.43;;;4.00;;
35530;SDS011;21637;53.352;-6.356;2023-04-08T06:25:00;8.23;;;4.22;;
35530;SDS011;21637;53.352;-6.356;2023-04-08T06:27:26;10.60;;;4.32;;
35530;SDS011;21637;53.352;-6.356;2023-04-08T06:29:52;8.50;;;3.97;;
35530;SDS011;21637;53.352;-6.356;2023-04-08T06:32:19;9.82;;;3.80;;
35530;SDS011;21637;53.352;-6.356;2023-04-08T06:34:45;7.07;;;4.00;;
35530;SDS011;21637;53.352;-6.356;2023-04-08T06:37:12;7.65;;;4.18;;
35530;SDS011;21637;53.352;-6.356;2023-04-08T06:39:37;9.18;;;4.55;;
35530;SDS011;21637;53.352;-6.356;2023-04-08T06:42:03;9.77;;;4.55;;
35530;SDS011;21637;53.352;-6.356;2023-04-08T06:44:30;7.65;;;4.35;;
35530;SDS011;21637;53.352;-6.356;2023-04-08T06:46:56;6.72;;;3.95;;
35530;SDS011;21637;53.352;-6.356;2023-04-08T06:49:22;8.00;;;3.95;;
35530;SDS011;21637;53.352;-6.356;2023-04-08T06:51:48;7.57;;;4.28;;
35530;SDS011;21637;53.352;-6.356;2023-04-08T06:54:13;9.30;;;3.20;;
35530;SDS011;21637;53.352;-6.356;2023-04-08T06:56:39;6.63;;;4.05;;
35530;SDS011;21637;53.352;-6.356;2023-04-08T06:59:05;6.75;;;3.83;;
35530;SDS011;21637;53.352;-6.356;2023-04-08T07:01:31;5.05;;;4.05;;
35530;SDS011;21637;53.352;-6.356;2023-04-08T07:03:57;8.73;;;3.83;;
35530;SDS011;21637;53.352;-6.356;2023-04-08T07:06:23;8.80;;;3.78;;
35530;SDS011;21637;53.352;-6.356;2023-04-08T07:08:49;7.38;;;3.65;;
35530;SDS011;21637;53.352;-6.356;2023-04-08T07:11:14;8.55;;;3.47;;
35530;SDS011;21637;53.352;-6.356;2023-04-08T07:13:41;6.78;;;3.85;;
35530;SDS011;21637;53.352;-6.356;2023-04-08T07:16:07;8.23;;;4.03;;
35530;SDS011;21637;53.352;-6.356;2023-04-08T07:18:33;10.00;;;4.32;;
35530;SDS011;21637;53.352;-6.356;2023-04-08T07:20:58;8.60;;;3.80;;
35530;SDS011;21637;53.352;-6.356;2023-04-08T07:23:25;8.32;;;3.35;;
35530;SDS011;21637;53.352;-6.356;2023-04-08T07:25:51;5.95;;;3.22;;
35530;SDS011;21637;53.352;-6.356;2023-04-08T07:28:18;9.15;;;3.22;;
35530;SDS011;21637;53.352;-6.356;2023-04-08T07:30:44;9.50;;;3.10;;
35530;SDS011;21637;53.352;-6.356;2023-04-08T07:33:10;5.93;;;2.38;;
35530;SDS011;21637;53.352;-6.356;2023-04-08T07:35:36;9.43;;;3.22;;
35530;SDS011;21637;53.352;-6.356;2023-04-08T07:38:02;2.80;;;1.70;;
35530;SDS011;21637;53.352;-6.356;2023-04-08T07:40:28;6.80;;;2.22;;
35530;SDS011;21637;53.352;-6.356;2023-04-08T07:42:54;7.43;;;2.67;;
35530;SDS011;21637;53.352;-6.356;2023-04-08T07:45:20;4.75;;;1.98;;
35530;SDS011;21637;53.352;-6.356;2023-04-08T07:47:45;5.78;;;2.00;;
35530;SDS011;21637;53.352;-6.356;2023-04-08T07:50:11;4.55;;;2.10;;
35530;SDS011;21637;53.352;-6.356;2023-04-08T07:52:37;4.85;;;1.92;;
35530;SDS011;21637;53.352;-6.356;2023-04-08T07:55:03;4.88;;;1.83;;
35530;SDS011;21637;53.352;-6.356;2023-04-08T07:57:30;4.35;;;1.70;;
35530;SDS011;21637;53.352;-6.356;2023-04-08T07:59:56;4.75;;;1.73;;
35530;SDS011;21637;53.352;-6.356;2023-04-08T08:02:22;4.03;;;1.50;;
35530;SDS011;21637;53.352;-6.356;2023-04-08T08:04:47;4.47;;;1.67;;
35530;SDS011;21637;53.352;-6.356;2023-04-08T08:07:13;4.10;;;1.45;;
35530;SDS011;21637;53.352;-6.356;2023-04-08T08:09:39;3.33;;;1.58;;
35530;SDS011;21637;53.352;-6.356;2023-04-08T08:12:05;4.93;;;1.50;;
35530;SDS011;21637;53.352;-6.356;2023-04-08T08:14:30;6.15;;;1.60;;
35530;SDS011;21637;53.352;-6.356;2023-04-08T08:16:56;4.97;;;1.58;;
35530;SDS011;21637;53.352;-6.356;2023-04-08T08:19:22;7.22;;;1.20;;
35530;SDS011;21637;53.352;-6.356;2023-04-08T08:21:48;3.60;;;1.35;;
35530;SDS011;21637;53.352;-6.356;2023-04-08T08:24:14;4.55;;;1.33;;
35530;SDS011;21637;53.352;-6.356;2023-04-08T08:26:40;4.88;;;1.13;;
35530;SDS011;21637;53.352;-6.356;2023-04-08T08:29:06;9.32;;;1.50;;
35530;SDS011;21637;53.352;-6.356;2023-04-08T08:31:33;5.90;;;1.60;;
35530;SDS011;21637;53.352;-6.356;2023-04-08T08:33:59;4.35;;;1.20;;
35530;SDS011;21637;53.352;-6.356;2023-04-08T08:36:24;3.78;;;1.30;;
35530;SDS011;21637;53.352;-6.356;2023-04-08T08:38:51;2.88;;;1.10;;
35530;SDS011;21637;53.352;-6.356;2023-04-08T08:41:18;5.15;;;1.95;;
35530;SDS011;21637;53.352;-6.356;2023-04-08T08:43:44;4.45;;;1.25;;
35530;SDS011;21637;53.352;-6.356;2023-04-08T08:46:10;5.75;;;1.20;;
35530;SDS011;21637;53.352;-6.356;2023-04-08T08:48:39;3.40;;;1.00;;
35530;SDS011;21637;53.352;-6.356;2023-04-08T08:51:08;5.80;;;1.15;;
35530;SDS011;21637;53.352;-6.356;2023-04-08T08:53:35;3.75;;;1.05;;
35530;SDS011;21637;53.352;-6.356;2023-04-08T08:56:01;5.10;;;1.15;;
35530;SDS011;21637;53.352;-6.356;2023-04-08T08:58:27;6.63;;;1.05;;
35530;SDS011;21637;53.352;-6.356;2023-04-08T09:00:53;3.17;;;1.10;;
35530;SDS011;21637;53.352;-6.356;2023-04-08T09:03:20;2.05;;;0.93;;
35530;SDS011;21637;53.352;-6.356;2023-04-08T09:08:25;2.58;;;1.17;;
35530;SDS011;21637;53.352;-6.356;2023-04-08T09:10:54;4.32;;;0.80;;
35530;SDS011;21637;53.352;-6.356;2023-04-08T09:13:35;5.25;;;1.30;;
35530;SDS011;21637;53.352;-6.356;2023-04-08T09:16:05;4.82;;;1.10;;
35530;SDS011;21637;53.352;-6.356;2023-04-08T09:18:33;3.03;;;1.00;;
35530;SDS011;21637;53.352;-6.356;2023-04-08T09:21:00;3.45;;;1.48;;
35530;SDS011;21637;53.352;-6.356;2023-04-08T09:23:39;3.45;;;0.98;;
35530;SDS011;21637;53.352;-6.356;2023-04-08T09:26:22;4.10;;;0.93;;
35530;SDS011;21637;53.352;-6.356;2023-04-08T09:31:30;2.78;;;0.90;;
35530;SDS011;21637;53.352;-6.356;2023-04-08T09:34:11;2.30;;;1.05;;
35530;SDS011;21637;53.352;-6.356;2023-04-08T09:36:39;1.95;;;0.68;;
35530;SDS011;21637;53.352;-6.356;2023-04-08T09:39:05;4.75;;;1.13;;
35530;SDS011;21637;53.352;-6.356;2023-04-08T09:41:35;1.80;;;1.10;;
35530;SDS011;21637;53.352;-6.356;2023-04-08T09:44:02;5.35;;;1.05;;
35530;SDS011;21637;53.352;-6.356;2023-04-08T09:51:47;4.70;;;1.10;;
35530;SDS011;21637;53.352;-6.356;2023-04-08T09:54:20;1.48;;;0.90;;
35530;SDS011;21637;53.352;-6.356;2023-04-08T09:56:48;3.97;;;0.88;;
35530;SDS011;21637;53.352;-6.356;2023-04-08T09:59:23;5.13;;;0.93;;
35530;SDS011;21637;53.352;-6.356;2023-04-08T10:01:52;3.65;;;0.80;;
35530;SDS011;21637;53.352;-6.356;2023-04-08T10:04:21;1.67;;;0.70;;
35530;SDS011;21637;53.352;-6.356;2023-04-08T10:06:53;3.38;;;0.80;;
35530;SDS011;21637;53.352;-6.356;2023-04-08T10:09:26;2.55;;;0.98;;
35530;SDS011;21637;53.352;-6.356;2023-04-08T10:11:53;2.63;;;1.20;;
35530;SDS011;21637;53.352;-6.356;2023-04-08T10:14:19;4.22;;;0.95;;
35530;SDS011;21637;53.352;-6.356;2023-04-08T10:16:46;2.80;;;0.60;;
35530;SDS011;21637;53.352;-6.356;2023-04-08T10:27:40;2.72;;;0.70;;
35530;SDS011;21637;53.352;-6.356;2023-04-08T10:32:52;4.22;;;0.80;;
35530;SDS011;21637;53.352;-6.356;2023-04-08T10:35:34;2.75;;;0.80;;
35530;SDS011;21637;53.352;-6.356;2023-04-08T10:38:01;1.70;;;0.70;;
35530;SDS011;21637;53.352;-6.356;2023-04-08T10:40:27;3.90;;;0.90;;
35530;SDS011;21637;53.352;-6.356;2023-04-08T10:42:54;6.35;;;1.00;;
35530;SDS011;21637;53.352;-6.356;2023-04-08T10:45:23;1.40;;;1.00;;
35530;SDS011;21637;53.352;-6.356;2023-04-08T10:47:49;3.28;;;0.90;;
35530;SDS011;21637;53.352;-6.356;2023-04-08T10:50:16;2.90;;;0.80;;
35530;SDS011;21637;53.352;-6.356;2023-04-08T10:52:46;5.63;;;0.88;;
35530;SDS011;21637;53.352;-6.356;2023-04-08T10:55:12;3.75;;;0.82;;
35530;SDS011;21637;53.352;-6.356;2023-04-08T10:57:37;3.03;;;1.17;;
35530;SDS011;21637;53.352;-6.356;2023-04-08T11:00:08;5.57;;;1.20;;
35530;SDS011;21637;53.352;-6.356;2023-04-08T11:02:38;3.80;;;1.30;;
35530;SDS011;21637;53.352;-6.356;2023-04-08T11:05:04;2.33;;;1.05;;
35530;SDS011;21637;53.352;-6.356;2023-04-08T11:07:30;5.43;;;1.00;;
35530;SDS011;21637;53.352;-6.356;2023-04-08T11:09:56;5.30;;;1.35;;
35530;SDS011;21637;53.352;-6.356;2023-04-08T11:12:21;3.13;;;1.00;;
35530;SDS011;21637;53.352;-6.356;2023-04-08T11:14:47;3.92;;;1.17;;
35530;SDS011;21637;53.352;-6.356;2023-04-08T11:17:16;3.58;;;0.98;;
35530;SDS011;21637;53.352;-6.356;2023-04-08T11:19:43;6.10;;;1.05;;
35530;SDS011;21637;53.352;-6.356;2023-04-08T11:22:11;12.07;;;1.80;;
35530;SDS011;21637;53.352;-6.356;2023-04-08T11:24:37;5.95;;;1.23;;
35530;SDS011;21637;53.352;-6.356;2023-04-08T11:27:03;2.85;;;1.13;;
35530;SDS011;21637;53.352;-6.356;2023-04-08T11:29:32;4.80;;;1.25;;
35530;SDS011;21637;53.352;-6.356;2023-04-08T11:31:58;5.15;;;1.38;;
35530;SDS011;21637;53.352;-6.356;2023-04-08T11:34:24;3.92;;;1.20;;
35530;SDS011;21637;53.352;-6.356;2023-04-08T11:36:50;2.88;;;1.25;;
35530;SDS011;21637;53.352;-6.356;2023-04-08T11:39:16;3.80;;;1.13;;
35530;SDS011;21637;53.352;-6.356;2023-04-08T11:41:42;4.50;;;1.50;;
35530;SDS011;21637;53.352;-6.356;2023-04-08T11:44:08;4.15;;;1.02;;
35530;SDS011;21637;53.352;-6.356;2023-04-08T11:46:34;3.40;;;1.20;;
35530;SDS011;21637;53.352;-6.356;2023-04-08T11:49:01;4.63;;;1.02;;
35530;SDS011;21637;53.352;-6.356;2023-04-08T11:51:32;3.40;;;1.38;;
35530;SDS011;21637;53.352;-6.356;2023-04-08T11:53:59;7.30;;;1.42;;
35530;SDS011;21637;53.352;-6.356;2023-04-08T11:56:28;5.03;;;1.77;;
35530;SDS011;21637;53.352;-6.356;2023-04-08T11:58:54;3.25;;;1.25;;
35530;SDS011;21637;53.352;-6.356;2023-04-08T12:01:20;6.22;;;1.60;;
35530;SDS011;21637;53.352;-6.356;2023-04-08T12:03:52;4.97;;;1.23;;
35530;SDS011;21637;53.352;-6.356;2023-04-08T12:06:19;4.63;;;1.50;;
35530;SDS011;21637;53.352;-6.356;2023-04-08T12:08:45;6.55;;;1.35;;
35530;SDS011;21637;53.352;-6.356;2023-04-08T12:11:11;4.72;;;1.35;;
35530;SDS011;21637;53.352;-6.356;2023-04-08T12:13:39;1.67;;;1.20;;
35530;SDS011;21637;53.352;-6.356;2023-04-08T12:16:05;4.20;;;1.40;;
35530;SDS011;21637;53.352;-6.356;2023-04-08T12:18:31;3.25;;;1.13;;
35530;SDS011;21637;53.352;-6.356;2023-04-08T12:20:57;5.63;;;1.33;;
35530;SDS011;21637;53.352;-6.356;2023-04-08T12:23:23;4.55;;;1.40;;
35530;SDS011;21637;53.352;-6.356;2023-04-08T12:25:48;4.65;;;1.27;;
35530;SDS011;21637;53.352;-6.356;2023-04-08T12:28:14;5.75;;;1.55;;
35530;SDS011;21637;53.352;-6.356;2023-04-08T12:30:40;8.70;;;2.08;;
35530;SDS011;21637;53.352;-6.356;2023-04-08T12:33:06;4.10;;;1.70;;
35530;SDS011;21637;53.352;-6.356;2023-04-08T12:35:31;4.53;;;1.77;;
35530;SDS011;21637;53.352;-6.356;2023-04-08T12:37:57;4.60;;;1.50;;
35530;SDS011;21637;53.352;-6.356;2023-04-08T12:40:23;5.40;;;1.67;;
35530;SDS011;21637;53.352;-6.356;2023-04-08T12:42:48;6.68;;;1.90;;
35530;SDS011;21637;53.352;-6.356;2023-04-08T12:45:15;6.53;;;1.63;;
35530;SDS011;21637;53.352;-6.356;2023-04-08T12:47:40;5.57;;;1.98;;
35530;SDS011;21637;53.352;-6.356;2023-04-08T12:50:06;7.88;;;1.80;;
35530;SDS011;21637;53.352;-6.356;2023-04-08T12:52:33;4.45;;;1.80;;
35530;SDS011;21637;53.352;-6.356;2023-04-08T12:54:59;5.90;;;2.40;;
35530;SDS011;21637;53.352;-6.356;2023-04-08T12:57:26;5.45;;;2.00;;
35530;SDS011;21637;53.352;-6.356;2023-04-08T12:59:53;5.88;;;2.00;;
35530;SDS011;21637;53.352;-6.356;2023-04-08T13:02:18;6.30;;;2.17;;
35530;SDS011;21637;53.352;-6.356;2023-04-08T13:04:44;5.88;;;2.13;;
35530;SDS011;21637;53.352;-6.356;2023-04-08T13:07:10;7.22;;;1.98;;
35530;SDS011;21637;53.352;-6.356;2023-04-08T13:09:36;6.43;;;1.75;;
35530;SDS011;21637;53.352;-6.356;2023-04-08T13:12:01;6.65;;;1.90;;
35530;SDS011;21637;53.352;-6.356;2023-04-08T13:14:27;5.65;;;2.05;;
35530;SDS011;21637;53.352;-6.356;2023-04-08T13:16:53;6.10;;;1.75;;
35530;SDS011;21637;53.352;-6.356;2023-04-08T13:19:19;5.78;;;2.10;;
35530;SDS011;21637;53.352;-6.356;2023-04-08T13:21:45;6.85;;;1.98;;
35530;SDS011;21637;53.352;-6.356;2023-04-08T13:24:10;5.30;;;1.92;;
35530;SDS011;21637;53.352;-6.356;2023-04-08T13:26:36;7.13;;;2.35;;
35530;SDS011;21637;53.352;-6.356;2023-04-08T13:29:02;6.57;;;2.10;;
35530;SDS011;21637;53.352;-6.356;2023-04-08T13:31:27;4.55;;;1.85;;
35530;SDS011;21637;53.352;-6.356;2023-04-08T13:33:53;7.28;;;2.20;;
35530;SDS011;21637;53.352;-6.356;2023-04-08T13:36:19;5.63;;;1.90;;
35530;SDS011;21637;53.352;-6.356;2023-04-08T13:38:44;7.35;;;2.20;;
35530;SDS011;21637;53.352;-6.356;2023-04-08T13:41:10;4.35;;;2.03;;
35530;SDS011;21637;53.352;-6.356;2023-04-08T13:43:36;6.75;;;2.22;;
35530;SDS011;21637;53.352;-6.356;2023-04-08T13:46:02;11.10;;;2.45;;
35530;SDS011;21637;53.352;-6.356;2023-04-08T13:48:27;9.60;;;2.70;;
35530;SDS011;21637;53.352;-6.356;2023-04-08T13:50:53;7.82;;;2.53;;
35530;SDS011;21637;53.352;-6.356;2023-04-08T13:53:19;4.45;;;2.38;;
35530;SDS011;21637;53.352;-6.356;2023-04-08T13:55:44;11.23;;;2.53;;
35530;SDS011;21637;53.352;-6.356;2023-04-08T13:58:10;9.85;;;2.10;;
35530;SDS011;21637;53.352;-6.356;2023-04-08T14:00:36;9.35;;;2.75;;
35530;SDS011;21637;53.352;-6.356;2023-04-08T14:03:02;7.40;;;2.88;;
35530;SDS011;21637;53.352;-6.356;2023-04-08T14:05:28;9.57;;;2.35;;
35530;SDS011;21637;53.352;-6.356;2023-04-08T14:07:53;8.05;;;2.35;;
35530;SDS011;21637;53.352;-6.356;2023-04-08T14:10:19;14.07;;;3.00;;
35530;SDS011;21637;53.352;-6.356;2023-04-08T14:12:45;5.65;;;2.33;;
35530;SDS011;21637;53.352;-6.356;2023-04-08T14:15:11;8.10;;;2.55;;
35530;SDS011;21637;53.352;-6.356;2023-04-08T14:17:36;10.73;;;2.90;;
35530;SDS011;21637;53.352;-6.356;2023-04-08T14:20:02;9.05;;;2.60;;
35530;SDS011;21637;53.352;-6.356;2023-04-08T14:22:30;8.32;;;2.58;;
35530;SDS011;21637;53.352;-6.356;2023-04-08T14:24:56;8.38;;;2.88;;
35530;SDS011;21637;53.352;-6.356;2023-04-08T14:27:22;11.52;;;3.08;;
35530;SDS011;21637;53.352;-6.356;2023-04-08T14:29:47;6.93;;;2.22;;
35530;SDS011;21637;53.352;-6.356;2023-04-08T14:32:13;11.02;;;2.85;;
35530;SDS011;21637;53.352;-6.356;2023-04-08T14:34:39;7.57;;;3.20;;
35530;SDS011;21637;53.352;-6.356;2023-04-08T14:37:05;6.03;;;2.30;;
35530;SDS011;21637;53.352;-6.356;2023-04-08T14:39:31;10.10;;;2.80;;
35530;SDS011;21637;53.352;-6.356;2023-04-08T14:41:56;8.40;;;3.17;;
35530;SDS011;21637;53.352;-6.356;2023-04-08T14:44:22;8.15;;;2.92;;
35530;SDS011;21637;53.352;-6.356;2023-04-08T14:46:48;7.50;;;2.85;;
35530;SDS011;21637;53.352;-6.356;2023-04-08T14:49:14;8.90;;;2.65;;